Pagrindinis puslapis
METAR-TAF:

METAR-TAF

Oro uostai :

Sirtas, Turkija

platuma: 37-58-41N, ilguma: 41-50-21E, Aukštis: 610 m

Dabartinis oras

Ataskaita buvo paskelbta 26 minutes, ne 08:50 UTC
Vėjas 4 kt iš Vakarų/Pietvakarių, svyruoja nuo Pietų/Pietvakarių ir Šiaurės
Temperatūra 12°C
Drėgmė 35%
Slėgis 1017 hPa
Matomumas 10 km arba daugiau
nėra debesų žemiau 1500 m ir nėra kamuolinių lietaus debesų

METAR: LTCL 260850Z 25004KT 210V350 CAVOK 12/M03 Q1017

Laikas: 12:16 (09:16 UTC)

Prognozė

Ataskaita buvo paskelbta 1 valandą ir 36 minutes, ne 07:40 UTC
Prognozė galioja nuo 26 metu 09 UTC su 26 metu 18 UTC
Vėjas 9 kt iš Šiaurės/Šiaurės Rytų
Matomumas 10 km arba daugiau
nėra debesų žemiau 1500 m ir nėra kamuolinių lietaus debesų

TAF: LTCL 260740Z 2609/2618 03009KT CAVOK

Orai ataskaitas ir orų prognozės (METAR, TAF).

turimą stotys yra geltonos ir raudonos taškus žemėlapyje.

Perkelti pele per norėdami pamatyti stoties vardą.

Tada spustelėkite, norėdami matyti oro stebėjimo ir prognozės.

Norėdami pakeisti žemėlapį: spustelėkite ant žalios mygtukų su juodo kryžiaus žemyn,; žalią mygtuką su brūkšneliu, jei norite nutolinti; arba žalių rodyklių gretimoms žemėlapius.


METAR-TAF: